Terminal Aerodrome Forecast
Issued by NWS Mt. Holly, NJ

Current Version | Previous Version | Text Only | Print | Product List | Glossary On
Versions: 1 2 3 4 5 6 7 8 9 10 11 12 13 14 15 16 17 18 19 20 21 22 23 24
000
FTUS41 KPHI 230529
TAFPHL
TAF
KPHL 230529Z 2306/2412 22004KT 5SM BR BKN200
     FM230900 VRB03KT 2SM BR OVC008
     FM231100 20004KT 3/4SM BR OVC004
     FM231400 22004KT 4SM BR BKN008
     FM231600 23006KT P6SM BKN025
     FM231900 20006KT P6SM SCT040
     FM240600 19004KT 4SM BR BKN015=

USA.gov is the U.S. government's official web portal to all federal, state and local government web resources and services.